sensor_id;sensor_type;location;lat;lon;timestamp;pressure;altitude;pressure_sealevel;temperature;humidity
72857;BME280;62742;52.136;4.500;2023-07-31T00:01:27;100989.28;;;17.52;100.00
72857;BME280;62742;52.136;4.500;2023-07-31T00:03:54;100986.75;;;17.49;100.00
72857;BME280;62742;52.136;4.500;2023-07-31T00:06:20;100992.22;;;17.46;100.00
72857;BME280;62742;52.136;4.500;2023-07-31T00:08:47;100986.25;;;17.41;100.00
72857;BME280;62742;52.136;4.500;2023-07-31T00:11:13;100997.00;;;17.37;100.00
72857;BME280;62742;52.136;4.500;2023-07-31T00:13:43;100992.53;;;17.38;100.00
72857;BME280;62742;52.136;4.500;2023-07-31T00:16:09;101001.56;;;17.34;100.00
72857;BME280;62742;52.136;4.500;2023-07-31T00:18:36;101000.75;;;17.32;100.00
72857;BME280;62742;52.136;4.500;2023-07-31T00:21:02;100989.44;;;17.27;100.00
72857;BME280;62742;52.136;4.500;2023-07-31T00:23:29;100990.22;;;17.30;100.00
72857;BME280;62742;52.136;4.500;2023-07-31T00:25:55;100975.16;;;17.09;100.00
72857;BME280;62742;52.136;4.500;2023-07-31T00:28:22;100985.78;;;17.09;100.00
72857;BME280;62742;52.136;4.500;2023-07-31T00:30:48;100978.03;;;17.02;100.00
72857;BME280;62742;52.136;4.500;2023-07-31T00:33:15;100980.13;;;17.16;100.00
72857;BME280;62742;52.136;4.500;2023-07-31T00:35:44;100978.59;;;17.11;100.00
72857;BME280;62742;52.136;4.500;2023-07-31T00:38:11;100976.75;;;17.13;100.00
72857;BME280;62742;52.136;4.500;2023-07-31T00:40:37;100975.16;;;17.09;100.00
72857;BME280;62742;52.136;4.500;2023-07-31T00:43:04;100972.09;;;17.18;100.00
72857;BME280;62742;52.136;4.500;2023-07-31T00:45:31;100972.25;;;17.15;100.00
72857;BME280;62742;52.136;4.500;2023-07-31T00:47:59;100965.88;;;17.19;100.00
72857;BME280;62742;52.136;4.500;2023-07-31T00:50:26;100975.38;;;17.25;100.00
72857;BME280;62742;52.136;4.500;2023-07-31T00:52:54;100972.03;;;17.19;100.00
72857;BME280;62742;52.136;4.500;2023-07-31T00:55:21;100976.44;;;17.20;100.00
72857;BME280;62742;52.136;4.500;2023-07-31T00:57:49;100960.31;;;17.25;100.00
72857;BME280;62742;52.136;4.500;2023-07-31T01:00:16;100970.94;;;17.25;100.00
72857;BME280;62742;52.136;4.500;2023-07-31T01:02:43;100969.22;;;17.24;100.00
72857;BME280;62742;52.136;4.500;2023-07-31T01:05:10;100978.53;;;17.34;100.00
72857;BME280;62742;52.136;4.500;2023-07-31T01:08:12;100980.63;;;17.26;100.00
72857;BME280;62742;52.136;4.500;2023-07-31T01:10:48;100968.88;;;17.32;100.00
72857;BME280;62742;52.136;4.500;2023-07-31T01:13:21;100969.81;;;17.31;100.00
72857;BME280;62742;52.136;4.500;2023-07-31T01:15:47;100970.06;;;17.25;100.00
72857;BME280;62742;52.136;4.500;2023-07-31T01:18:14;100963.78;;;17.27;100.00
72857;BME280;62742;52.136;4.500;2023-07-31T01:20:42;100960.91;;;17.32;100.00
72857;BME280;62742;52.136;4.500;2023-07-31T01:23:32;100959.25;;;17.29;100.00
72857;BME280;62742;52.136;4.500;2023-07-31T01:26:23;100961.38;;;17.21;100.00
72857;BME280;62742;52.136;4.500;2023-07-31T01:29:28;100958.47;;;17.27;100.00
72857;BME280;62742;52.136;4.500;2023-07-31T01:32:02;100964.88;;;17.22;100.00
72857;BME280;62742;52.136;4.500;2023-07-31T01:34:30;100965.53;;;17.27;100.00
72857;BME280;62742;52.136;4.500;2023-07-31T01:36:58;100957.72;;;17.24;100.00
72857;BME280;62742;52.136;4.500;2023-07-31T01:39:25;100954.69;;;17.11;100.00
72857;BME280;62742;52.136;4.500;2023-07-31T01:41:51;100942.78;;;17.21;100.00
72857;BME280;62742;52.136;4.500;2023-07-31T01:44:18;100945.31;;;17.24;100.00
72857;BME280;62742;52.136;4.500;2023-07-31T01:46:44;100935.88;;;17.17;100.00
72857;BME280;62742;52.136;4.500;2023-07-31T01:49:11;100931.59;;;17.13;100.00
72857;BME280;62742;52.136;4.500;2023-07-31T01:51:37;100938.19;;;17.25;100.00
72857;BME280;62742;52.136;4.500;2023-07-31T01:54:03;100928.56;;;17.22;100.00
72857;BME280;62742;52.136;4.500;2023-07-31T01:56:30;100923.63;;;17.13;100.00
72857;BME280;62742;52.136;4.500;2023-07-31T01:58:56;100915.66;;;17.13;100.00
72857;BME280;62742;52.136;4.500;2023-07-31T02:01:23;100906.94;;;17.31;100.00
72857;BME280;62742;52.136;4.500;2023-07-31T02:03:50;100913.38;;;17.26;100.00
72857;BME280;62742;52.136;4.500;2023-07-31T02:06:16;100903.41;;;17.10;100.00
72857;BME280;62742;52.136;4.500;2023-07-31T02:08:42;100905.47;;;17.24;100.00
72857;BME280;62742;52.136;4.500;2023-07-31T02:11:09;100885.91;;;17.05;100.00
72857;BME280;62742;52.136;4.500;2023-07-31T02:13:35;100898.69;;;17.17;100.00
72857;BME280;62742;52.136;4.500;2023-07-31T02:16:02;100901.47;;;17.14;100.00
72857;BME280;62742;52.136;4.500;2023-07-31T02:18:29;100894.59;;;17.10;100.00
72857;BME280;62742;52.136;4.500;2023-07-31T02:20:55;100898.94;;;17.11;100.00
72857;BME280;62742;52.136;4.500;2023-07-31T02:23:22;100896.75;;;17.00;100.00
72857;BME280;62742;52.136;4.500;2023-07-31T02:25:48;100894.16;;;16.98;100.00
72857;BME280;62742;52.136;4.500;2023-07-31T02:28:15;100910.56;;;17.08;100.00
72857;BME280;62742;52.136;4.500;2023-07-31T02:30:44;100889.50;;;17.04;100.00
72857;BME280;62742;52.136;4.500;2023-07-31T02:33:14;100891.53;;;17.19;100.00
72857;BME280;62742;52.136;4.500;2023-07-31T02:35:42;100885.47;;;17.15;100.00
72857;BME280;62742;52.136;4.500;2023-07-31T02:38:08;100889.41;;;17.07;100.00
72857;BME280;62742;52.136;4.500;2023-07-31T02:40:35;100885.47;;;17.15;100.00
72857;BME280;62742;52.136;4.500;2023-07-31T02:43:01;100882.75;;;17.17;100.00
72857;BME280;62742;52.136;4.500;2023-07-31T02:45:28;100869.19;;;17.02;100.00
72857;BME280;62742;52.136;4.500;2023-07-31T02:47:57;100870.69;;;17.10;100.00
72857;BME280;62742;52.136;4.500;2023-07-31T02:50:24;100876.06;;;17.08;100.00
72857;BME280;62742;52.136;4.500;2023-07-31T02:52:50;100856.47;;;17.11;100.00
72857;BME280;62742;52.136;4.500;2023-07-31T02:55:17;100863.63;;;17.09;100.00
72857;BME280;62742;52.136;4.500;2023-07-31T02:57:43;100855.41;;;17.15;99.94
72857;BME280;62742;52.136;4.500;2023-07-31T03:00:10;100856.53;;;17.09;100.00
72857;BME280;62742;52.136;4.500;2023-07-31T03:02:36;100852.22;;;17.07;100.00
72857;BME280;62742;52.136;4.500;2023-07-31T03:05:03;100850.41;;;17.07;100.00
72857;BME280;62742;52.136;4.500;2023-07-31T03:07:30;100849.94;;;17.18;99.59
72857;BME280;62742;52.136;4.500;2023-07-31T03:09:56;100848.56;;;17.09;99.73
72857;BME280;62742;52.136;4.500;2023-07-31T03:12:23;100850.28;;;16.90;100.00
72857;BME280;62742;52.136;4.500;2023-07-31T03:14:49;100845.22;;;17.04;100.00
72857;BME280;62742;52.136;4.500;2023-07-31T03:17:16;100842.75;;;16.99;100.00
72857;BME280;62742;52.136;4.500;2023-07-31T03:19:42;100855.47;;;16.93;100.00
72857;BME280;62742;52.136;4.500;2023-07-31T03:22:09;100840.19;;;16.98;100.00
72857;BME280;62742;52.136;4.500;2023-07-31T03:24:35;100844.25;;;17.07;100.00
72857;BME280;62742;52.136;4.500;2023-07-31T03:27:02;100836.22;;;17.08;100.00
72857;BME280;62742;52.136;4.500;2023-07-31T03:29:29;100845.41;;;16.99;100.00
72857;BME280;62742;52.136;4.500;2023-07-31T03:31:56;100843.59;;;17.01;100.00
72857;BME280;62742;52.136;4.500;2023-07-31T03:34:22;100841.59;;;17.07;100.00
72857;BME280;62742;52.136;4.500;2023-07-31T03:36:49;100833.88;;;17.00;100.00
72857;BME280;62742;52.136;4.500;2023-07-31T03:39:15;100832.03;;;17.02;100.00
72857;BME280;62742;52.136;4.500;2023-07-31T03:41:42;100823.94;;;17.06;100.00
72857;BME280;62742;52.136;4.500;2023-07-31T03:44:08;100820.72;;;16.97;100.00
72857;BME280;62742;52.136;4.500;2023-07-31T03:46:35;100820.63;;;17.00;100.00
72857;BME280;62742;52.136;4.500;2023-07-31T03:49:02;100813.84;;;16.93;100.00
72857;BME280;62742;52.136;4.500;2023-07-31T03:51:28;100810.41;;;16.91;100.00
72857;BME280;62742;52.136;4.500;2023-07-31T03:53:55;100807.59;;;16.94;100.00
72857;BME280;62742;52.136;4.500;2023-07-31T03:56:21;100806.84;;;16.91;100.00
72857;BME280;62742;52.136;4.500;2023-07-31T03:58:49;100803.47;;;16.87;100.00
72857;BME280;62742;52.136;4.500;2023-07-31T04:01:16;100793.75;;;16.88;100.00
72857;BME280;62742;52.136;4.500;2023-07-31T04:03:42;100797.13;;;16.91;100.00
72857;BME280;62742;52.136;4.500;2023-07-31T04:06:09;100804.25;;;16.89;100.00
72857;BME280;62742;52.136;4.500;2023-07-31T04:08:36;100796.00;;;16.97;100.00
72857;BME280;62742;52.136;4.500;2023-07-31T04:11:03;100797.84;;;16.95;100.00
72857;BME280;62742;52.136;4.500;2023-07-31T04:13:29;100790.75;;;16.95;100.00
72857;BME280;62742;52.136;4.500;2023-07-31T04:15:56;100790.75;;;16.95;100.00
72857;BME280;62742;52.136;4.500;2023-07-31T04:18:25;100781.03;;;16.94;100.00
72857;BME280;62742;52.136;4.500;2023-07-31T04:20:52;100788.09;;;16.95;100.00
72857;BME280;62742;52.136;4.500;2023-07-31T04:23:19;100786.34;;;16.94;100.00
72857;BME280;62742;52.136;4.500;2023-07-31T04:25:46;100771.97;;;17.00;100.00
72857;BME280;62742;52.136;4.500;2023-07-31T04:28:12;100772.41;;;16.89;100.00
72857;BME280;62742;52.136;4.500;2023-07-31T04:30:39;100767.09;;;16.89;100.00
72857;BME280;62742;52.136;4.500;2023-07-31T04:33:05;100759.56;;;17.00;100.00
72857;BME280;62742;52.136;4.500;2023-07-31T04:35:32;100749.53;;;17.07;100.00
72857;BME280;62742;52.136;4.500;2023-07-31T04:37:58;100758.28;;;17.09;100.00
72857;BME280;62742;52.136;4.500;2023-07-31T04:40:25;100756.50;;;17.10;100.00
72857;BME280;62742;52.136;4.500;2023-07-31T04:42:52;100757.44;;;17.09;100.00
72857;BME280;62742;52.136;4.500;2023-07-31T04:45:18;100753.69;;;17.13;100.00
72857;BME280;62742;52.136;4.500;2023-07-31T04:47:45;100750.38;;;17.08;100.00
72857;BME280;62742;52.136;4.500;2023-07-31T04:50:11;100737.69;;;17.14;100.00
72857;BME280;62742;52.136;4.500;2023-07-31T04:52:37;100745.72;;;17.13;100.00
72857;BME280;62742;52.136;4.500;2023-07-31T04:55:04;100739.63;;;17.11;100.00
72857;BME280;62742;52.136;4.500;2023-07-31T04:57:31;100742.81;;;17.19;100.00
72857;BME280;62742;52.136;4.500;2023-07-31T04:59:57;100742.09;;;17.15;100.00
72857;BME280;62742;52.136;4.500;2023-07-31T05:02:24;100745.06;;;17.08;100.00
72857;BME280;62742;52.136;4.500;2023-07-31T05:04:50;100738.19;;;17.04;100.00
72857;BME280;62742;52.136;4.500;2023-07-31T05:07:17;100743.50;;;17.04;100.00
72857;BME280;62742;52.136;4.500;2023-07-31T05:09:43;100735.59;;;17.02;100.00
72857;BME280;62742;52.136;4.500;2023-07-31T05:12:10;100740.34;;;17.14;100.00
72857;BME280;62742;52.136;4.500;2023-07-31T05:14:36;100730.22;;;17.04;100.00
72857;BME280;62742;52.136;4.500;2023-07-31T05:17:03;100724.97;;;17.02;100.00
72857;BME280;62742;52.136;4.500;2023-07-31T05:19:30;100726.72;;;17.03;100.00
72857;BME280;62742;52.136;4.500;2023-07-31T05:21:56;100722.50;;;16.97;100.00
72857;BME280;62742;52.136;4.500;2023-07-31T05:24:23;100725.69;;;17.06;100.00
72857;BME280;62742;52.136;4.500;2023-07-31T05:26:50;100724.25;;;16.98;100.00
72857;BME280;62742;52.136;4.500;2023-07-31T05:29:17;100713.91;;;16.92;100.00
72857;BME280;62742;52.136;4.500;2023-07-31T05:31:43;100706.94;;;16.90;100.00
72857;BME280;62742;52.136;4.500;2023-07-31T05:34:10;100707.00;;;16.88;100.00
72857;BME280;62742;52.136;4.500;2023-07-31T05:36:37;100706.28;;;16.85;100.00
72857;BME280;62742;52.136;4.500;2023-07-31T05:39:04;100703.66;;;16.83;100.00
72857;BME280;62742;52.136;4.500;2023-07-31T05:41:35;100703.13;;;16.75;100.00
72857;BME280;62742;52.136;4.500;2023-07-31T05:44:02;100707.28;;;16.80;100.00
72857;BME280;62742;52.136;4.500;2023-07-31T05:46:29;100700.59;;;16.72;100.00
72857;BME280;62742;52.136;4.500;2023-07-31T05:48:57;100696.53;;;16.85;100.00
72857;BME280;62742;52.136;4.500;2023-07-31T05:51:23;100688.78;;;16.79;100.00
72857;BME280;62742;52.136;4.500;2023-07-31T05:53:50;100695.53;;;16.88;100.00
72857;BME280;62742;52.136;4.500;2023-07-31T05:56:16;100706.59;;;16.97;100.00
72857;BME280;62742;52.136;4.500;2023-07-31T05:58:42;100688.47;;;17.07;100.00
72857;BME280;62742;52.136;4.500;2023-07-31T06:01:09;100694.03;;;17.01;100.00
72857;BME280;62742;52.136;4.500;2023-07-31T06:03:38;100682.94;;;17.12;100.00
72857;BME280;62742;52.136;4.500;2023-07-31T06:06:05;100688.69;;;17.22;100.00
72857;BME280;62742;52.136;4.500;2023-07-31T06:08:31;100693.44;;;17.15;100.00
72857;BME280;62742;52.136;4.500;2023-07-31T06:10:59;100692.63;;;17.13;100.00
72857;BME280;62742;52.136;4.500;2023-07-31T06:13:25;100688.13;;;17.15;100.00
72857;BME280;62742;52.136;4.500;2023-07-31T06:15:52;100682.91;;;17.32;100.00
72857;BME280;62742;52.136;4.500;2023-07-31T06:18:19;100680.25;;;17.32;100.00
72857;BME280;62742;52.136;4.500;2023-07-31T06:20:46;100679.78;;;17.23;100.00
72857;BME280;62742;52.136;4.500;2023-07-31T06:23:13;100680.66;;;17.23;100.00
72857;BME280;62742;52.136;4.500;2023-07-31T06:25:40;100662.50;;;17.33;100.00
72857;BME280;62742;52.136;4.500;2023-07-31T06:28:06;100667.16;;;17.28;100.00
72857;BME280;62742;52.136;4.500;2023-07-31T06:30:33;100659.69;;;17.36;100.00
72857;BME280;62742;52.136;4.500;2023-07-31T06:33:00;100666.88;;;17.34;100.00
72857;BME280;62742;52.136;4.500;2023-07-31T06:35:26;100668.09;;;17.46;100.00
72857;BME280;62742;52.136;4.500;2023-07-31T06:37:53;100665.44;;;17.46;100.00
72857;BME280;62742;52.136;4.500;2023-07-31T06:40:19;100662.56;;;17.50;100.00
72857;BME280;62742;52.136;4.500;2023-07-31T06:42:46;100652.94;;;17.48;100.00
72857;BME280;62742;52.136;4.500;2023-07-31T06:45:12;100659.69;;;17.55;100.00
72857;BME280;62742;52.136;4.500;2023-07-31T06:47:39;100650.56;;;17.42;100.00
72857;BME280;62742;52.136;4.500;2023-07-31T06:50:06;100646.94;;;17.44;100.00
72857;BME280;62742;52.136;4.500;2023-07-31T06:52:33;100653.22;;;17.42;100.00
72857;BME280;62742;52.136;4.500;2023-07-31T06:55:02;100654.50;;;17.52;100.00
72857;BME280;62742;52.136;4.500;2023-07-31T06:57:30;100644.66;;;17.54;100.00
72857;BME280;62742;52.136;4.500;2023-07-31T06:59:56;100652.28;;;17.62;100.00
72857;BME280;62742;52.136;4.500;2023-07-31T07:02:22;100654.09;;;17.61;100.00
72857;BME280;62742;52.136;4.500;2023-07-31T07:04:49;100644.47;;;17.58;100.00
72857;BME280;62742;52.136;4.500;2023-07-31T07:07:16;100657.38;;;17.66;100.00
72857;BME280;62742;52.136;4.500;2023-07-31T07:09:42;100635.09;;;17.69;100.00
72857;BME280;62742;52.136;4.500;2023-07-31T07:12:09;100657.22;;;17.69;100.00
72857;BME280;62742;52.136;4.500;2023-07-31T07:14:35;100655.50;;;17.68;100.00
72857;BME280;62742;52.136;4.500;2023-07-31T07:17:02;100654.56;;;17.69;100.00
72857;BME280;62742;52.136;4.500;2023-07-31T07:19:28;100649.97;;;17.92;100.00
72857;BME280;62742;52.136;4.500;2023-07-31T07:21:55;100656.22;;;17.91;100.00
72857;BME280;62742;52.136;4.500;2023-07-31T07:24:22;100646.69;;;17.87;100.00
72857;BME280;62742;52.136;4.500;2023-07-31T07:26:49;100650.03;;;17.90;100.00
72857;BME280;62742;52.136;4.500;2023-07-31T07:29:15;100652.03;;;17.85;100.00
72857;BME280;62742;52.136;4.500;2023-07-31T07:31:41;100652.88;;;18.05;100.00
72857;BME280;62742;52.136;4.500;2023-07-31T07:34:08;100649.34;;;18.04;100.00
72857;BME280;62742;52.136;4.500;2023-07-31T07:36:34;100651.47;;;17.98;100.00
72857;BME280;62742;52.136;4.500;2023-07-31T07:39:01;100648.56;;;18.02;100.00
72857;BME280;62742;52.136;4.500;2023-07-31T07:41:27;100649.50;;;18.01;100.00
72857;BME280;62742;52.136;4.500;2023-07-31T07:43:54;100648.25;;;18.08;100.00
72857;BME280;62742;52.136;4.500;2023-07-31T07:46:20;100642.41;;;18.19;100.00
72857;BME280;62742;52.136;4.500;2023-07-31T07:48:47;100649.34;;;18.22;100.00
72857;BME280;62742;52.136;4.500;2023-07-31T07:51:13;100650.38;;;18.19;100.00
72857;BME280;62742;52.136;4.500;2023-07-31T07:53:40;100643.56;;;18.31;100.00
72857;BME280;62742;52.136;4.500;2023-07-31T07:56:06;100646.31;;;18.29;100.00
72857;BME280;62742;52.136;4.500;2023-07-31T07:58:33;100648.44;;;18.23;100.00
72857;BME280;62742;52.136;4.500;2023-07-31T08:01:01;100645.78;;;18.23;100.00
72857;BME280;62742;52.136;4.500;2023-07-31T08:03:27;100631.84;;;18.18;100.00
72857;BME280;62742;52.136;4.500;2023-07-31T08:05:58;100632.28;;;18.26;100.00
72857;BME280;62742;52.136;4.500;2023-07-31T08:08:25;100617.69;;;18.35;100.00
72857;BME280;62742;52.136;4.500;2023-07-31T08:10:54;100629.94;;;18.37;100.00
72857;BME280;62742;52.136;4.500;2023-07-31T08:13:21;100627.53;;;18.50;100.00
72857;BME280;62742;52.136;4.500;2023-07-31T08:15:47;100627.22;;;18.39;100.00
72857;BME280;62742;52.136;4.500;2023-07-31T08:18:14;100627.53;;;18.50;100.00
72857;BME280;62742;52.136;4.500;2023-07-31T08:20:41;100633.69;;;18.50;100.00
72857;BME280;62742;52.136;4.500;2023-07-31T08:23:08;100639.34;;;18.44;100.00
72857;BME280;62742;52.136;4.500;2023-07-31T08:25:35;100641.22;;;18.42;100.00
72857;BME280;62742;52.136;4.500;2023-07-31T08:28:03;100622.75;;;18.39;100.00
72857;BME280;62742;52.136;4.500;2023-07-31T08:30:30;100619.94;;;18.42;100.00
72857;BME280;62742;52.136;4.500;2023-07-31T08:32:57;100624.06;;;18.48;100.00
72857;BME280;62742;52.136;4.500;2023-07-31T08:35:24;100624.94;;;18.48;100.00
72857;BME280;62742;52.136;4.500;2023-07-31T08:37:54;100623.56;;;18.41;100.00
72857;BME280;62742;52.136;4.500;2023-07-31T08:40:20;100626.59;;;18.34;100.00
72857;BME280;62742;52.136;4.500;2023-07-31T08:42:54;100626.03;;;18.62;100.00
72857;BME280;62742;52.136;4.500;2023-07-31T08:45:28;100615.38;;;18.62;100.00
72857;BME280;62742;52.136;4.500;2023-07-31T08:47:57;100615.81;;;18.70;100.00
72857;BME280;62742;52.136;4.500;2023-07-31T08:50:25;100617.22;;;18.77;100.00
72857;BME280;62742;52.136;4.500;2023-07-31T08:52:52;100623.09;;;18.84;100.00
72857;BME280;62742;52.136;4.500;2023-07-31T08:55:19;100620.34;;;18.68;100.00
72857;BME280;62742;52.136;4.500;2023-07-31T08:57:51;100624.91;;;18.66;100.00
72857;BME280;62742;52.136;4.500;2023-07-31T09:00:19;100619.47;;;18.52;100.00
72857;BME280;62742;52.136;4.500;2023-07-31T09:02:59;100620.72;;;18.44;100.00
72857;BME280;62742;52.136;4.500;2023-07-31T09:05:31;100615.16;;;18.49;100.00
72857;BME280;62742;52.136;4.500;2023-07-31T09:07:58;100615.69;;;18.56;100.00
72857;BME280;62742;52.136;4.500;2023-07-31T09:10:28;100624.16;;;18.80;100.00
72857;BME280;62742;52.136;4.500;2023-07-31T09:12:56;100617.38;;;18.74;100.00
72857;BME280;62742;52.136;4.500;2023-07-31T09:15:24;100621.94;;;18.72;100.00
72857;BME280;62742;52.136;4.500;2023-07-31T09:17:59;100628.09;;;18.73;100.00
72857;BME280;62742;52.136;4.500;2023-07-31T09:20:29;100616.25;;;18.78;100.00
72857;BME280;62742;52.136;4.500;2023-07-31T09:22:56;100610.72;;;18.83;100.00
72857;BME280;62742;52.136;4.500;2023-07-31T09:25:25;100625.59;;;18.69;100.00
72857;BME280;62742;52.136;4.500;2023-07-31T09:28:00;100617.88;;;18.82;100.00
72857;BME280;62742;52.136;4.500;2023-07-31T09:30:28;100613.03;;;18.89;100.00
72857;BME280;62742;52.136;4.500;2023-07-31T09:33:03;100612.03;;;18.92;100.00
72857;BME280;62742;52.136;4.500;2023-07-31T09:35:34;100614.53;;;18.95;99.82
72857;BME280;62742;52.136;4.500;2023-07-31T09:38:09;100610.50;;;18.87;100.00
72857;BME280;62742;52.136;4.500;2023-07-31T09:40:45;100610.25;;;19.08;100.00
72857;BME280;62742;52.136;4.500;2023-07-31T09:43:19;100615.69;;;19.22;98.71
72857;BME280;62742;52.136;4.500;2023-07-31T09:45:47;100602.09;;;19.27;98.06
72857;BME280;62742;52.136;4.500;2023-07-31T09:48:19;100605.09;;;19.05;99.53
72857;BME280;62742;52.136;4.500;2023-07-31T09:50:48;100613.16;;;19.03;99.62
72857;BME280;62742;52.136;4.500;2023-07-31T09:53:16;100603.28;;;19.05;99.51
72857;BME280;62742;52.136;4.500;2023-07-31T09:55:43;100606.19;;;19.01;99.69
72857;BME280;62742;52.136;4.500;2023-07-31T09:58:11;100617.13;;;19.12;99.78
72857;BME280;62742;52.136;4.500;2023-07-31T10:00:39;100609.91;;;19.14;99.45
72857;BME280;62742;52.136;4.500;2023-07-31T10:03:08;100606.47;;;19.12;100.00
72857;BME280;62742;52.136;4.500;2023-07-31T10:05:38;100609.75;;;19.17;100.00
72857;BME280;62742;52.136;4.500;2023-07-31T10:08:10;100608.53;;;19.23;99.90
72857;BME280;62742;52.136;4.500;2023-07-31T10:10:44;100612.50;;;19.32;100.00
72857;BME280;62742;52.136;4.500;2023-07-31T10:13:12;100609.50;;;19.38;98.98
72857;BME280;62742;52.136;4.500;2023-07-31T10:15:40;100610.72;;;19.32;100.00
72857;BME280;62742;52.136;4.500;2023-07-31T10:18:09;100612.59;;;19.46;100.00
72857;BME280;62742;52.136;4.500;2023-07-31T10:20:38;100614.81;;;19.70;99.90
72857;BME280;62742;52.136;4.500;2023-07-31T10:23:04;100610.31;;;19.86;99.67
72857;BME280;62742;52.136;4.500;2023-07-31T10:25:32;100615.66;;;19.86;97.81
72857;BME280;62742;52.136;4.500;2023-07-31T10:28:01;100607.84;;;19.83;96.85
72857;BME280;62742;52.136;4.500;2023-07-31T10:30:31;100615.66;;;19.86;97.17
72857;BME280;62742;52.136;4.500;2023-07-31T10:33:00;100604.03;;;19.87;95.28
72857;BME280;62742;52.136;4.500;2023-07-31T10:35:28;100618.56;;;19.66;95.93
72857;BME280;62742;52.136;4.500;2023-07-31T10:38:09;100606.91;;;19.68;95.92
72857;BME280;62742;52.136;4.500;2023-07-31T10:40:38;100607.06;;;19.81;95.59
72857;BME280;62742;52.136;4.500;2023-07-31T10:43:05;100611.53;;;19.65;96.65
72857;BME280;62742;52.136;4.500;2023-07-31T10:45:36;100609.81;;;19.63;96.33
72857;BME280;62742;52.136;4.500;2023-07-31T10:48:06;100608.47;;;19.56;96.24
72857;BME280;62742;52.136;4.500;2023-07-31T10:50:38;100606.72;;;19.71;96.58
72857;BME280;62742;52.136;4.500;2023-07-31T10:53:26;100605.66;;;19.74;95.00
72857;BME280;62742;52.136;4.500;2023-07-31T10:55:58;100608.88;;;19.80;95.59
72857;BME280;62742;52.136;4.500;2023-07-31T10:58:26;100609.66;;;20.13;96.63
72857;BME280;62742;52.136;4.500;2023-07-31T11:00:57;100603.13;;;20.33;95.59
72857;BME280;62742;52.136;4.500;2023-07-31T11:03:48;100595.22;;;20.31;93.10
72857;BME280;62742;52.136;4.500;2023-07-31T11:06:20;100586.81;;;20.23;93.60
72857;BME280;62742;52.136;4.500;2023-07-31T11:08:48;100583.81;;;19.99;92.77
72857;BME280;62742;52.136;4.500;2023-07-31T11:11:18;100595.16;;;20.03;93.44
72857;BME280;62742;52.136;4.500;2023-07-31T11:13:50;100580.63;;;20.23;93.15
72857;BME280;62742;52.136;4.500;2023-07-31T11:16:23;100591.56;;;20.18;93.51
72857;BME280;62742;52.136;4.500;2023-07-31T11:18:52;100584.41;;;20.18;93.07
72857;BME280;62742;52.136;4.500;2023-07-31T11:21:22;100577.97;;;20.37;93.46
72857;BME280;62742;52.136;4.500;2023-07-31T11:23:53;100577.09;;;20.51;93.52
72857;BME280;62742;52.136;4.500;2023-07-31T11:26:23;100568.56;;;20.74;92.51
72857;BME280;62742;52.136;4.500;2023-07-31T11:28:51;100564.75;;;20.64;91.85
72857;BME280;62742;52.136;4.500;2023-07-31T11:31:19;100575.25;;;20.67;90.82
72857;BME280;62742;52.136;4.500;2023-07-31T11:33:46;100552.72;;;20.71;90.05
72857;BME280;62742;52.136;4.500;2023-07-31T11:36:18;100566.66;;;20.77;89.20
72857;BME280;62742;52.136;4.500;2023-07-31T11:38:46;100568.28;;;20.79;88.52
72857;BME280;62742;52.136;4.500;2023-07-31T11:41:15;100564.16;;;20.59;89.76
72857;BME280;62742;52.136;4.500;2023-07-31T11:43:43;100567.25;;;20.67;88.95
72857;BME280;62742;52.136;4.500;2023-07-31T11:46:09;100573.78;;;20.62;89.00
72857;BME280;62742;52.136;4.500;2023-07-31T11:48:39;100586.44;;;20.44;88.27
72857;BME280;62742;52.136;4.500;2023-07-31T11:51:09;100589.38;;;20.25;88.92
72857;BME280;62742;52.136;4.500;2023-07-31T11:53:43;100596.91;;;20.18;90.09
72857;BME280;62742;52.136;4.500;2023-07-31T11:56:18;100578.00;;;20.07;89.83
72857;BME280;62742;52.136;4.500;2023-07-31T11:58:49;100596.31;;;20.13;89.62
72857;BME280;62742;52.136;4.500;2023-07-31T12:01:21;100578.97;;;20.06;89.46
72857;BME280;62742;52.136;4.500;2023-07-31T12:03:50;100576.13;;;20.09;90.71
72857;BME280;62742;52.136;4.500;2023-07-31T12:06:18;100565.31;;;20.10;89.97
72857;BME280;62742;52.136;4.500;2023-07-31T12:08:47;100573.16;;;20.13;90.24
72857;BME280;62742;52.136;4.500;2023-07-31T12:11:15;100565.06;;;20.15;90.33
72857;BME280;62742;52.136;4.500;2023-07-31T12:13:43;100566.63;;;20.33;88.60
72857;BME280;62742;52.136;4.500;2023-07-31T12:16:10;100558.69;;;20.32;89.50
72857;BME280;62742;52.136;4.500;2023-07-31T12:18:37;100557.09;;;20.29;89.93
72857;BME280;62742;52.136;4.500;2023-07-31T12:21:07;100555.88;;;20.05;90.03
72857;BME280;62742;52.136;4.500;2023-07-31T12:23:36;100556.94;;;20.02;89.10
72857;BME280;62742;52.136;4.500;2023-07-31T12:26:08;100548.84;;;20.04;90.17
72857;BME280;62742;52.136;4.500;2023-07-31T12:28:38;100559.81;;;20.13;90.23
72857;BME280;62742;52.136;4.500;2023-07-31T12:31:15;100563.31;;;19.99;90.23
72857;BME280;62742;52.136;4.500;2023-07-31T12:33:48;100550.94;;;19.98;90.88
72857;BME280;62742;52.136;4.500;2023-07-31T12:36:26;100545.34;;;20.17;91.12
72857;BME280;62742;52.136;4.500;2023-07-31T12:38:54;100534.09;;;20.27;90.30
72857;BME280;62742;52.136;4.500;2023-07-31T12:41:22;100526.56;;;20.48;90.61
72857;BME280;62742;52.136;4.500;2023-07-31T12:43:49;100515.00;;;21.05;87.89
72857;BME280;62742;52.136;4.500;2023-07-31T12:46:15;100524.41;;;21.25;87.77
72857;BME280;62742;52.136;4.500;2023-07-31T12:48:43;100533.91;;;21.29;86.13